Terminal Aerodrome Forecast
Issued by NWS

Home | Current Version | Previous Version | Text Only | Print | Product List | Glossary On
Versions: 1 2 3 4 5 6 7 8 9 10 11 12 13 14 15 16 17 18 19 20 21 22 23 24
000
FTUS41 KPBZ 251100
TAFDUJ
TAF
KDUJ 251138Z 2512/2612 24008KT 2SM BR OVC004
     FM252000 05005KT 2SM -SN OVC006
     FM260400 06005KT 1SM -SN BR OVC004=

USA.gov is the U.S. government's official web portal to all federal, state and local government web resources and services.